EDACEDDC

Guest
Details From EDAC - Altenburg Nobitz
To EDDC - Dresden
Flight Number -
Tags Routegen Generated
Created
Modified
Stats Distance 50 nm / 92 km
Max Altitude 100 ft / 30 m
Waypoints 5
Social Downloads 0
Likes 0
Share VATSIM

Download

Looking for another format? Having issues loading an existing format? Contact us
Advertisement - Login to hide

Notes

Departing runway 4 EDAC. Arriving runway 4 EDDC.

Route

EDAC +51.04_+012.59 +51.06_+013.14 +51.07_+013.68 EDDC

ID Type Via Altitude Latitude Longitude Leg Dist Tot Dist Heading (true) Name
O EDAC APT - 0 ft / 0 m 50.98926˚ 12.51651˚ - 0 nm - -
+51.04_+012.59 DME - 100 ft / 30 m 51.04417˚ 12.59144˚ 4 nm 4 nm 41° / 41° -
+51.06_+013.14 DME - 100 ft / 30 m 51.05681˚ 13.13580˚ 20 nm 24 nm 88° / 88° -
+51.07_+013.68 DME - 100 ft / 30 m 51.06946˚ 13.68015˚ 20 nm 45 nm 88° / 88° -
O EDDC APT - 0 ft / 0 m 51.12425˚ 13.75544˚ 4 nm 49 nm 41° / 41° -

Altitude Profile

Advertisement - Login to hide

EDAC

Details ICAO EDAC (AOC)
Name Altenburg Nobitz
Region Germany - Civil
Timezone Europe/Berlin (UTC+2.0)
Stats Elevation 640 ft / 195 m (AMSL)
Location 50.981816° 12.506364°
Runways 1
Magnetic Variation 3.509° E

METAR

EDAC 261650Z VRB02KT CAVOK 26/09 Q1020

Decode

TAF

Not found

Departure Runways

ID Width Length Bearing (true) Bearing (mag) Surface Threshold Offset Overrun Length
04 148 ft / 45 m 7,159 ft / 2,182 m 40.61° 37.10° Concrete 853 ft / 260 m 427 ft / 130 m
22 148 ft / 45 m 7,159 ft / 2,182 m 220.62° 217.11° Concrete 985 ft / 300 m 656 ft / 200 m

EDDC

Details ICAO EDDC (DRS)
Name Dresden
Region Germany - Civil
Timezone Europe/Berlin (UTC+2.0)
Stats Elevation 752 ft / 229 m (AMSL)
Location 51.134366° 13.768065°
Runways 1
Magnetic Variation 3.857° E

METAR

EDDC 261720Z VRB02KT 9999 FEW066TCU 25/08 Q1021 NOSIG

Decode

TAF

TAF EDDC 261100Z 2612/2712 06006KT CAVOK BECMG 2617/2619 14004KT BECMG 2707/2709 08005KT

Decode

Destination Runways

ID Width Length Bearing (true) Bearing (mag) Surface Threshold Offset Overrun Length
04 197 ft / 60 m 9,348 ft / 2,849 m 40.74° 36.88° Concrete 0 ft / 0 m 0 ft / 0 m
22 197 ft / 60 m 9,348 ft / 2,849 m 220.76° 216.90° Concrete 984 ft / 300 m 0 ft / 0 m

Approach Navaids

Runway Type Ident Frequency Range Bearing (true) Bearing (mag) Slope Elevation
04 Localiser IDRE 110.50 MHz 18 nm / 33 km 40.83° 36.97° - 703 ft / 214 m (AMSL)
04 Glidescope IDRE 110.50 MHz 10 nm / 19 km 40.83° 36.97° 3.00° 755 ft / 230 m (AMSL)
22 Localiser IDRW 109.70 MHz 18 nm / 33 km 220.81° 216.95° - 755 ft / 230 m (AMSL)
22 Glidescope IDRW 109.70 MHz 10 nm / 19 km 220.81° 216.95° 3.00° 703 ft / 214 m (AMSL)